Addy, WA (99101)

10:27 PM PDT on August 22, 2014 (GMT -0700)
RAWS LANE CREEK WA US | Change Station
CLOSE
Current Station
Personal Weather Station
Location: Boyds, WA
Elevation: 4430 ft
Nearby Weather Stations

Elev 4430 ft 48.61 °N, 118.28 °W | Updated 29 minutes ago

Scattered Clouds
Scattered Clouds
53 °F
Feels Like 53 °F
N
0
Wind Variable Wind from North
Gusts 4.0 mph

Today
High -- | Low -- °F
--% Chance of Precip.
Yesterday
High -- | Low -- °F
Precip. -- in
5:55 AM 7:52 PM
Waning Crescent, 5% visible
Pressure 30.07 in
Visibility 10.0 miles
Clouds Scattered Clouds 7000 ft
Dew Point 47 °F
Humidity 80%
Rainfall 0.27 in
Snow Depth Not available.
UV 0 out of 12
Pollen 6.60 out of 12
PM2.5 Good
Flu Activity Not available.
METAR KDEW 230453Z AUTO 02009KT 10SM SCT070 17/08 A3009 RMK AO2 SLP183 T01670078

More Conditions Fewer Conditions

Pressure 30.07 in
Visibility 10.0 miles
Clouds Scattered Clouds 7000 ft
Dew Point 47 °F
Humidity 80%
Rainfall 0.27 in
Snow Depth Not available.
UV 0 out of 12
Pollen 6.60 out of 12
PM2.5 Good
Flu Activity Not available.
METAR KDEW 230453Z AUTO 02009KT 10SM SCT070 17/08 A3009 RMK AO2 SLP183 T01670078

More Conditions Fewer Conditions

10-Day Weather Forecast

Almanac

Astronomy

Aug. 22, 2014 Rise Set
Actual Time 5:55 AM PDT 7:52 PM PDT
Civil Twilight 5:22 AM PDT 8:26 PM PDT
Nautical Twilight 4:40 AM PDT 9:07 PM PDT
Astronomical Twilight 3:54 AM PDT 9:52 PM PDT
Moon 3:16 AM PDT (8/22) 6:07 PM PDT (8/22)
Length of Visible Light 15h 03m
Length of Day
13h 56m
Tomorrow will be 3m 17s shorter.
Waning Crescent, 5% of the Moon is Illuminated
Aug 23
Waning Crescent
Aug 25
New
Sep 2
First Quarter
Sep 8
Full
Sep 15
Last Quarter

Yesterday's Extremes

State Highs State Lows

Community

WunderPhotos

Upload Photos

1,746,370 photos uploaded!

WunderBlogs® & News

By Dr. Jeff Masters
Director of Meteorology, Weather Underground
By Kari Strenfel
Meteorologist, Weather Underground
By Christopher C. Burt
Weather Historian, Weather Underground
August 23, 2014
August 23, 2014
August 22, 2014

Nearby

Air Quality

  Air Quality AQ Index Pollutant
Yesterday Good
OZONE
Yesterday Good
PM10
Current Good
PM2.5
Friday Good
PM10
Friday Good
OZONE
Saturday Good
PM10
Saturday Good
OZONE
Sunday Good
PM10
Sunday Good
OZONE
Monday Good
PM10
Monday Good
OZONE

Snow Depth

Station Depth Elevation
Sentinel Butte 0 in 4920 ft
Bunchgrass Meadow 0 in 5000 ft
Quartz Peak 1 in 4700 ft
Moses Mountain 1 in 5300 ft
Harts Pass 0 in 6500 ft

Earthquake Activity

City Distance Mag. Time & Date
No recent earthquake activity has been reported nearby.
Minimum magnitude displayed is 2.5.

Coastal Water Temperatures

Place Temperature
No Stations Reporting

Nearby Weather Stations